Time;durP1;ratioP1;P1;durP2;ratioP2;P2;SDS_P1;SDS_P2;PMS_P1;PMS_P2;Temp;Humidity;BMP_temperature;BMP_pressure;BME280_temperature;BME280_humidity;BME280_pressure;Samples;Min_cycle;Max_cycle;Signal;HPM_P1;HPM_P2
2021/11/24 00:01:28;;;;;;;3.30;0.85;;;;;;;;;;4983839;28;20125;-52
2021/11/24 00:03:54;;;;;;;2.90;0.90;;;;;;;;;;4985332;28;20042;-53
2021/11/24 00:06:20;;;;;;;3.50;0.90;;;;;;;;;;4983616;28;20526;-54
2021/11/24 00:08:48;;;;;;;2.90;0.98;;;;;;;;;;4983867;28;20133;-51
2021/11/24 00:11:14;;;;;;;3.42;1.10;;;;;;;;;;4983772;28;20768;-52
2021/11/24 00:13:40;;;;;;;2.88;0.90;;;;;;;;;;4981186;28;20048;-53
2021/11/24 00:16:09;;;;;;;2.78;1.05;;;;;;;;;;4983508;28;20415;-52
2021/11/24 00:18:35;;;;;;;3.22;1.00;;;;;;;;;;4960914;28;20050;-51
2021/11/24 00:21:01;;;;;;;4.18;1.33;;;;;;;;;;4982705;28;20517;-55
2021/11/24 00:23:27;;;;;;;2.85;0.88;;;;;;;;;;4983698;28;20045;-52
2021/11/24 00:25:53;;;;;;;3.65;1.10;;;;;;;;;;4985013;28;20026;-51
2021/11/24 00:28:19;;;;;;;5.95;1.25;;;;;;;;;;4981638;28;20050;-52
2021/11/24 00:30:47;;;;;;;9.13;1.23;;;;;;;;;;4967329;28;20088;-55
2021/11/24 00:33:12;;;;;;;3.28;1.00;;;;;;;;;;4981090;28;20423;-52
2021/11/24 00:35:39;;;;;;;6.20;1.30;;;;;;;;;;4983554;28;20037;-51
2021/11/24 00:38:05;;;;;;;4.25;1.23;;;;;;;;;;4983149;28;20072;-52
2021/11/24 00:40:31;;;;;;;2.72;0.75;;;;;;;;;;4982384;28;20532;-53
2021/11/24 00:42:57;;;;;;;4.00;1.10;;;;;;;;;;4982818;28;20042;-52
2021/11/24 00:45:22;;;;;;;3.92;1.10;;;;;;;;;;4983332;28;20387;-54
2021/11/24 00:47:49;;;;;;;2.30;0.88;;;;;;;;;;4982026;28;20096;-52
2021/11/24 00:50:15;;;;;;;4.55;1.10;;;;;;;;;;4984742;28;20045;-54
2021/11/24 00:52:41;;;;;;;3.53;1.20;;;;;;;;;;4980752;28;20053;-55
2021/11/24 00:55:07;;;;;;;5.32;1.10;;;;;;;;;;4983837;28;20088;-53
2021/11/24 00:57:33;;;;;;;3.13;1.00;;;;;;;;;;4981508;28;20045;-53
2021/11/24 00:59:59;;;;;;;3.22;1.20;;;;;;;;;;4983602;28;20042;-54
2021/11/24 01:02:25;;;;;;;3.53;1.25;;;;;;;;;;4981989;28;20092;-54
2021/11/24 01:04:50;;;;;;;2.55;0.80;;;;;;;;;;4983123;28;20065;-52
2021/11/24 01:07:16;;;;;;;2.95;1.13;;;;;;;;;;4949551;28;20042;-53
2021/11/24 01:09:42;;;;;;;2.50;1.05;;;;;;;;;;4949519;28;20425;-53
2021/11/24 01:12:08;;;;;;;4.38;1.55;;;;;;;;;;4971617;28;20515;-50
2021/11/24 01:14:34;;;;;;;3.15;1.17;;;;;;;;;;4970306;28;20055;-53
2021/11/24 01:17:03;;;;;;;2.78;1.02;;;;;;;;;;4953893;28;20123;-53
2021/11/24 01:19:29;;;;;;;4.93;1.45;;;;;;;;;;4970809;28;20041;-53
2021/11/24 01:21:55;;;;;;;4.68;1.40;;;;;;;;;;4972505;28;20423;-55
2021/11/24 01:24:20;;;;;;;4.15;1.65;;;;;;;;;;4970118;28;20042;-53
2021/11/24 01:26:47;;;;;;;3.28;1.15;;;;;;;;;;4970810;28;20045;-54
2021/11/24 01:29:13;;;;;;;6.68;1.30;;;;;;;;;;4971180;28;20053;-54
2021/11/24 01:31:38;;;;;;;3.33;1.15;;;;;;;;;;4971024;28;20387;-52
2021/11/24 01:34:04;;;;;;;8.10;1.48;;;;;;;;;;4951368;28;20034;-52
2021/11/24 01:36:30;;;;;;;3.85;1.38;;;;;;;;;;4970607;28;20691;-54
2021/11/24 01:38:56;;;;;;;3.15;1.10;;;;;;;;;;4971932;28;20042;-51
2021/11/24 01:41:22;;;;;;;5.80;1.55;;;;;;;;;;4971382;28;20080;-55
2021/11/24 01:43:48;;;;;;;7.05;1.42;;;;;;;;;;4951515;28;20105;-54
2021/11/24 01:46:17;;;;;;;3.33;1.17;;;;;;;;;;4969511;28;20042;-54
2021/11/24 01:48:43;;;;;;;6.18;1.55;;;;;;;;;;4969313;28;20034;-53
2021/11/24 01:51:09;;;;;;;4.88;1.33;;;;;;;;;;4971247;28;20054;-53
2021/11/24 01:53:35;;;;;;;4.25;1.58;;;;;;;;;;4968576;28;20629;-51
2021/11/24 01:56:01;;;;;;;3.97;1.38;;;;;;;;;;4970626;28;20069;-53
2021/11/24 01:58:27;;;;;;;3.53;1.40;;;;;;;;;;4968851;28;20046;-54
2021/11/24 02:00:53;;;;;;;12.10;1.85;;;;;;;;;;4951692;28;20577;-53
2021/11/24 02:03:20;;;;;;;5.68;1.63;;;;;;;;;;4952791;28;20034;-51
2021/11/24 02:05:46;;;;;;;5.63;1.58;;;;;;;;;;4974273;28;20463;-53
2021/11/24 02:08:12;;;;;;;4.47;1.60;;;;;;;;;;4965990;28;20170;-52
2021/11/24 02:10:38;;;;;;;5.40;1.70;;;;;;;;;;4961762;28;20222;-53
2021/11/24 02:13:04;;;;;;;4.10;1.52;;;;;;;;;;4982769;28;21034;-53
2021/11/24 02:15:29;;;;;;;3.67;1.58;;;;;;;;;;4983600;28;20038;-52
2021/11/24 02:18:00;;;;;;;3.47;1.42;;;;;;;;;;4985767;28;20039;-52
2021/11/24 02:20:39;;;;;;;5.72;1.40;;;;;;;;;;4983753;28;20042;-53
2021/11/24 02:23:06;;;;;;;3.65;1.33;;;;;;;;;;4985787;28;20365;-50
2021/11/24 02:25:32;;;;;;;4.80;1.63;;;;;;;;;;4984549;28;20778;-54
2021/11/24 02:27:58;;;;;;;4.15;1.65;;;;;;;;;;4985054;28;20158;-53
2021/11/24 02:30:24;;;;;;;3.90;1.65;;;;;;;;;;4986029;28;20046;-50
2021/11/24 02:32:50;;;;;;;3.80;1.35;;;;;;;;;;4985256;28;20228;-52
2021/11/24 02:35:16;;;;;;;5.75;1.50;;;;;;;;;;4984876;28;20038;-54
2021/11/24 02:37:42;;;;;;;4.50;1.67;;;;;;;;;;4985321;28;21838;-53
2021/11/24 02:40:08;;;;;;;4.38;1.67;;;;;;;;;;4968016;28;20040;-51
2021/11/24 02:42:37;;;;;;;3.40;1.50;;;;;;;;;;4970635;28;20062;-53
2021/11/24 02:45:03;;;;;;;2.75;1.00;;;;;;;;;;4986110;28;20037;-50
2021/11/24 02:47:30;;;;;;;2.90;1.05;;;;;;;;;;4986246;28;20513;-52
2021/11/24 02:49:59;;;;;;;3.28;1.15;;;;;;;;;;4985730;28;20046;-51
2021/11/24 02:52:25;;;;;;;0.63;0.40;;;;;;;;;;4985191;28;20046;-52
2021/11/24 02:54:57;;;;;;;1.70;0.73;;;;;;;;;;4965420;28;20065;-55
2021/11/24 02:57:33;;;;;;;3.80;1.33;;;;;;;;;;4969423;28;20372;-52
2021/11/24 02:59:59;;;;;;;7.72;1.15;;;;;;;;;;4985092;28;20046;-53
2021/11/24 03:02:26;;;;;;;4.82;1.40;;;;;;;;;;4984646;28;20038;-51
2021/11/24 03:04:53;;;;;;;5.65;1.23;;;;;;;;;;4986005;28;20039;-54
2021/11/24 03:07:19;;;;;;;6.70;1.10;;;;;;;;;;4983081;28;20089;-55
2021/11/24 03:09:52;;;;;;;4.47;1.67;;;;;;;;;;4956188;28;20034;-52
2021/11/24 03:12:18;;;;;;;6.65;1.40;;;;;;;;;;4985886;28;20185;-53
2021/11/24 03:14:44;;;;;;;3.13;1.10;;;;;;;;;;4982182;28;20046;-51
2021/11/24 03:17:10;;;;;;;4.07;1.55;;;;;;;;;;4985085;28;20034;-55
2021/11/24 03:19:35;;;;;;;5.15;1.40;;;;;;;;;;4984416;28;20043;-55
2021/11/24 03:22:02;;;;;;;7.45;2.08;;;;;;;;;;4984962;28;20772;-54
2021/11/24 03:24:27;;;;;;;8.15;2.80;;;;;;;;;;4983983;28;20038;-52
2021/11/24 03:26:53;;;;;;;10.80;2.40;;;;;;;;;;4985521;28;20038;-53
2021/11/24 03:29:19;;;;;;;7.43;2.40;;;;;;;;;;4983400;28;20059;-55
2021/11/24 03:31:45;;;;;;;8.05;2.40;;;;;;;;;;4979955;28;20038;-56
2021/11/24 03:34:11;;;;;;;5.22;2.03;;;;;;;;;;4984752;28;20054;-54
2021/11/24 03:36:38;;;;;;;5.45;2.35;;;;;;;;;;4984580;28;20521;-51
2021/11/24 03:39:04;;;;;;;7.22;2.88;;;;;;;;;;4984722;28;20035;-52
2021/11/24 03:41:31;;;;;;;8.38;3.10;;;;;;;;;;4983593;28;20046;-53
2021/11/24 03:43:57;;;;;;;9.70;2.53;;;;;;;;;;4983388;28;20447;-51
2021/11/24 03:46:23;;;;;;;9.75;2.58;;;;;;;;;;4981777;28;20046;-54
2021/11/24 03:48:49;;;;;;;6.93;2.78;;;;;;;;;;4982209;28;20042;-54
2021/11/24 03:51:15;;;;;;;7.55;2.83;;;;;;;;;;4981117;28;20080;-54
2021/11/24 03:53:41;;;;;;;6.25;2.83;;;;;;;;;;4982686;28;20061;-52
2021/11/24 03:56:08;;;;;;;9.45;3.95;;;;;;;;;;4967869;28;20047;-49
2021/11/24 03:58:35;;;;;;;9.85;4.60;;;;;;;;;;4983295;28;20426;-54
2021/11/24 04:01:01;;;;;;;10.05;3.40;;;;;;;;;;4983570;28;20049;-52
2021/11/24 04:03:27;;;;;;;6.18;2.72;;;;;;;;;;4982801;28;20034;-52
2021/11/24 04:05:54;;;;;;;6.13;2.83;;;;;;;;;;4985806;28;20038;-50
2021/11/24 04:08:21;;;;;;;8.73;3.30;;;;;;;;;;4982150;28;20118;-53
2021/11/24 04:10:47;;;;;;;12.93;3.30;;;;;;;;;;4983846;28;20038;-51
2021/11/24 04:13:12;;;;;;;9.07;3.72;;;;;;;;;;4981205;28;20060;-53
2021/11/24 04:15:38;;;;;;;7.88;3.67;;;;;;;;;;4982723;28;20443;-51
2021/11/24 04:18:04;;;;;;;7.25;3.17;;;;;;;;;;4984378;28;20491;-51
2021/11/24 04:20:31;;;;;;;6.35;2.53;;;;;;;;;;4982864;28;20057;-54
2021/11/24 04:22:57;;;;;;;8.27;3.80;;;;;;;;;;4983453;28;20797;-51
2021/11/24 04:25:23;;;;;;;7.40;3.00;;;;;;;;;;4965922;28;20042;-53
2021/11/24 04:27:49;;;;;;;5.47;3.00;;;;;;;;;;4982266;28;20057;-52
2021/11/24 04:30:15;;;;;;;5.78;2.85;;;;;;;;;;4982552;28;20173;-53
2021/11/24 04:32:41;;;;;;;8.45;3.53;;;;;;;;;;4980894;28;20046;-53
2021/11/24 04:35:07;;;;;;;4.82;2.47;;;;;;;;;;4984887;28;20049;-54
2021/11/24 04:37:33;;;;;;;8.32;2.95;;;;;;;;;;4983855;28;20042;-53
2021/11/24 04:39:59;;;;;;;7.05;2.70;;;;;;;;;;4981197;28;20594;-52
2021/11/24 04:42:25;;;;;;;11.07;3.35;;;;;;;;;;4982757;28;20134;-56
2021/11/24 04:44:51;;;;;;;10.07;3.20;;;;;;;;;;4984456;28;20048;-53
2021/11/24 04:47:17;;;;;;;10.77;3.53;;;;;;;;;;4982462;28;20053;-53
2021/11/24 04:49:43;;;;;;;9.30;3.35;;;;;;;;;;4981500;28;20466;-54
2021/11/24 04:52:09;;;;;;;12.45;3.70;;;;;;;;;;4981446;28;20116;-54
2021/11/24 04:54:35;;;;;;;6.93;3.30;;;;;;;;;;4982607;28;20030;-53
2021/11/24 04:57:00;;;;;;;13.07;3.67;;;;;;;;;;4983574;28;20521;-54
2021/11/24 04:59:26;;;;;;;6.60;3.10;;;;;;;;;;4982047;28;20132;-52
2021/11/24 05:01:52;;;;;;;8.52;3.17;;;;;;;;;;4982279;28;20395;-54
2021/11/24 05:04:21;;;;;;;9.43;3.58;;;;;;;;;;4982021;28;20042;-52
2021/11/24 05:06:47;;;;;;;6.88;3.08;;;;;;;;;;4984063;28;21441;-53
2021/11/24 05:09:13;;;;;;;7.00;3.03;;;;;;;;;;4964742;28;20532;-54
2021/11/24 05:11:40;;;;;;;9.82;3.00;;;;;;;;;;4980945;28;20429;-52
2021/11/24 05:14:08;;;;;;;7.57;3.45;;;;;;;;;;4965811;28;20038;-53
2021/11/24 05:16:35;;;;;;;16.98;3.53;;;;;;;;;;4980753;28;20125;-52
2021/11/24 05:19:02;;;;;;;7.90;3.35;;;;;;;;;;4953870;28;20056;-53
2021/11/24 05:21:32;;;;;;;8.45;3.53;;;;;;;;;;4984146;28;20099;-51
2021/11/24 05:23:58;;;;;;;6.93;3.30;;;;;;;;;;4985185;28;20053;-53
2021/11/24 05:26:25;;;;;;;5.30;2.80;;;;;;;;;;4982801;28;20077;-51
2021/11/24 05:28:52;;;;;;;7.90;4.03;;;;;;;;;;4983291;28;20042;-51
2021/11/24 05:31:18;;;;;;;7.35;3.28;;;;;;;;;;4981307;28;20399;-52
2021/11/24 05:33:46;;;;;;;8.20;3.28;;;;;;;;;;4983158;28;20066;-51
2021/11/24 05:36:12;;;;;;;6.90;3.35;;;;;;;;;;4982751;28;20039;-52
2021/11/24 05:38:38;;;;;;;11.02;3.13;;;;;;;;;;4980691;28;20026;-53
2021/11/24 05:41:05;;;;;;;9.10;3.03;;;;;;;;;;4985490;28;20052;-53
2021/11/24 05:43:31;;;;;;;10.45;2.90;;;;;;;;;;4965321;28;20051;-55
2021/11/24 05:48:23;;;;;;;9.52;3.47;;;;;;;;;;4981813;28;20069;-54
2021/11/24 05:50:50;;;;;;;5.82;2.88;;;;;;;;;;4983063;28;20077;-51
2021/11/24 05:53:17;;;;;;;5.93;2.80;;;;;;;;;;4982153;28;20121;-52
2021/11/24 05:55:44;;;;;;;7.25;3.17;;;;;;;;;;4981659;28;20042;-54
2021/11/24 05:58:10;;;;;;;5.95;2.75;;;;;;;;;;4983297;28;20525;-51
2021/11/24 06:00:36;;;;;;;6.22;2.83;;;;;;;;;;4982261;28;20046;-50
2021/11/24 06:03:02;;;;;;;7.70;3.33;;;;;;;;;;4982074;28;20050;-50
2021/11/24 06:05:28;;;;;;;14.63;3.47;;;;;;;;;;4983412;28;20048;-50
2021/11/24 06:07:54;;;;;;;12.40;2.67;;;;;;;;;;4962681;28;20062;-52
2021/11/24 06:10:20;;;;;;;12.57;3.80;;;;;;;;;;4955279;28;21858;-52
2021/11/24 06:12:46;;;;;;;8.93;2.70;;;;;;;;;;4958670;28;20054;-52
2021/11/24 06:15:17;;;;;;;6.85;3.05;;;;;;;;;;4956828;28;20044;-54
2021/11/24 06:17:44;;;;;;;12.27;2.88;;;;;;;;;;4955919;28;20039;-52
2021/11/24 06:20:11;;;;;;;8.05;2.72;;;;;;;;;;4954955;28;20051;-52
2021/11/24 06:22:37;;;;;;;7.53;3.13;;;;;;;;;;4953053;28;20047;-50
2021/11/24 06:25:03;;;;;;;7.32;3.08;;;;;;;;;;4954241;28;20059;-52
2021/11/24 06:27:29;;;;;;;5.00;2.25;;;;;;;;;;4953263;28;20839;-51
2021/11/24 06:29:55;;;;;;;7.68;2.92;;;;;;;;;;4953528;28;20121;-53
2021/11/24 06:32:21;;;;;;;7.30;2.83;;;;;;;;;;4953758;28;20057;-54
2021/11/24 06:34:47;;;;;;;6.07;2.70;;;;;;;;;;4953159;28;20035;-54
2021/11/24 06:37:13;;;;;;;5.60;2.33;;;;;;;;;;4952084;28;20571;-53
2021/11/24 06:39:39;;;;;;;5.43;2.83;;;;;;;;;;4954111;28;20077;-53
2021/11/24 06:42:05;;;;;;;7.30;3.08;;;;;;;;;;4952814;28;20590;-52
2021/11/24 06:44:31;;;;;;;8.05;3.15;;;;;;;;;;4953233;28;20057;-55
2021/11/24 06:46:57;;;;;;;6.22;3.00;;;;;;;;;;4955232;28;20113;-55
2021/11/24 06:49:22;;;;;;;11.32;2.88;;;;;;;;;;4957475;28;20082;-55
2021/11/24 06:51:48;;;;;;;5.78;2.60;;;;;;;;;;4940854;28;20043;-51
2021/11/24 06:54:18;;;;;;;4.85;2.30;;;;;;;;;;4957667;28;20063;-55
2021/11/24 06:56:45;;;;;;;7.10;3.17;;;;;;;;;;4956376;28;20047;-54
2021/11/24 06:59:11;;;;;;;9.10;3.80;;;;;;;;;;4938827;28;20626;-53
2021/11/24 07:01:37;;;;;;;7.93;2.88;;;;;;;;;;4957516;28;20050;-51
2021/11/24 07:04:03;;;;;;;7.88;2.88;;;;;;;;;;4938945;28;20054;-51
2021/11/24 07:06:29;;;;;;;6.00;3.10;;;;;;;;;;4961585;28;20419;-52
2021/11/24 07:08:55;;;;;;;7.03;2.58;;;;;;;;;;4985240;28;20042;-54
2021/11/24 07:11:23;;;;;;;7.18;2.85;;;;;;;;;;4986871;28;20046;-50
2021/11/24 07:13:49;;;;;;;7.38;2.97;;;;;;;;;;4984235;28;20108;-53
2021/11/24 07:16:15;;;;;;;12.43;3.22;;;;;;;;;;4985508;28;20137;-51
2021/11/24 07:18:41;;;;;;;7.85;3.38;;;;;;;;;;4968742;28;20046;-50
2021/11/24 07:21:07;;;;;;;8.27;3.10;;;;;;;;;;4984582;28;20038;-51
2021/11/24 07:23:33;;;;;;;14.15;2.70;;;;;;;;;;4983473;28;22073;-52
2021/11/24 07:25:59;;;;;;;7.30;2.50;;;;;;;;;;4967535;28;20751;-50
2021/11/24 07:28:24;;;;;;;10.43;3.47;;;;;;;;;;4971880;28;20050;-51
2021/11/24 07:30:50;;;;;;;6.25;2.40;;;;;;;;;;4984952;28;20588;-49
2021/11/24 07:33:16;;;;;;;7.43;3.28;;;;;;;;;;4984135;28;20589;-50
2021/11/24 07:35:42;;;;;;;9.27;3.17;;;;;;;;;;4984055;28;21464;-50
2021/11/24 07:38:08;;;;;;;7.45;3.25;;;;;;;;;;4984488;28;20037;-51
2021/11/24 07:40:34;;;;;;;5.68;2.95;;;;;;;;;;4983195;28;20050;-51
2021/11/24 07:43:00;;;;;;;5.72;2.88;;;;;;;;;;4984627;28;20534;-51
2021/11/24 07:45:26;;;;;;;6.93;2.70;;;;;;;;;;4984561;28;20502;-53
2021/11/24 07:47:51;;;;;;;6.05;2.78;;;;;;;;;;4985928;28;20039;-50
2021/11/24 07:50:17;;;;;;;6.47;2.90;;;;;;;;;;4983598;28;20042;-51
2021/11/24 07:52:43;;;;;;;9.88;3.10;;;;;;;;;;4983501;28;21761;-53
2021/11/24 07:55:09;;;;;;;11.45;3.25;;;;;;;;;;4985232;28;20038;-51
2021/11/24 07:57:35;;;;;;;9.43;3.13;;;;;;;;;;4965810;28;20108;-53
2021/11/24 08:00:01;;;;;;;6.20;2.97;;;;;;;;;;4985819;28;20147;-50
2021/11/24 08:02:27;;;;;;;5.18;2.47;;;;;;;;;;4984527;28;20045;-51
2021/11/24 08:04:53;;;;;;;6.80;3.08;;;;;;;;;;4983850;28;20050;-51
2021/11/24 08:07:19;;;;;;;7.00;2.58;;;;;;;;;;4982440;28;20046;-52
2021/11/24 08:09:45;;;;;;;8.90;3.58;;;;;;;;;;4965624;28;20151;-50
2021/11/24 08:12:11;;;;;;;8.60;3.60;;;;;;;;;;4983717;28;20065;-49
2021/11/24 08:14:36;;;;;;;5.22;2.58;;;;;;;;;;4983323;28;21600;-49
2021/11/24 08:17:04;;;;;;;9.15;3.60;;;;;;;;;;4984301;28;20801;-53
2021/11/24 08:19:30;;;;;;;5.22;2.83;;;;;;;;;;4983213;28;20043;-52
2021/11/24 08:21:55;;;;;;;10.90;3.17;;;;;;;;;;4983705;28;20041;-52
2021/11/24 08:24:22;;;;;;;4.53;2.15;;;;;;;;;;4985943;28;20042;-51
2021/11/24 08:26:48;;;;;;;6.03;2.90;;;;;;;;;;4985344;28;20050;-51
2021/11/24 08:29:14;;;;;;;5.93;2.63;;;;;;;;;;4985606;28;20041;-53
2021/11/24 08:31:40;;;;;;;5.82;2.35;;;;;;;;;;4983081;28;20049;-53
2021/11/24 08:34:12;;;;;;;6.90;3.15;;;;;;;;;;4983451;28;20050;-51
2021/11/24 08:36:38;;;;;;;8.73;2.85;;;;;;;;;;4983151;28;20050;-51
2021/11/24 08:39:04;;;;;;;7.13;2.60;;;;;;;;;;4984169;28;20061;-53
2021/11/24 08:41:30;;;;;;;10.05;3.03;;;;;;;;;;4985263;28;20296;-52
2021/11/24 08:43:56;;;;;;;5.18;2.63;;;;;;;;;;4984507;28;20127;-50
2021/11/24 08:46:22;;;;;;;5.15;2.75;;;;;;;;;;4985000;28;20043;-49
2021/11/24 08:48:48;;;;;;;7.30;3.00;;;;;;;;;;4984630;28;20084;-50
2021/11/24 08:51:14;;;;;;;6.32;2.65;;;;;;;;;;4983895;28;20418;-51
2021/11/24 08:53:40;;;;;;;10.77;2.45;;;;;;;;;;4984209;28;20096;-52
2021/11/24 08:56:06;;;;;;;7.90;3.58;;;;;;;;;;4985650;28;20034;-50
2021/11/24 08:58:32;;;;;;;6.65;2.70;;;;;;;;;;4985726;28;20069;-52
2021/11/24 09:00:58;;;;;;;12.55;3.42;;;;;;;;;;4985394;28;20030;-52
2021/11/24 09:03:23;;;;;;;9.10;3.10;;;;;;;;;;4984667;28;20197;-52
2021/11/24 09:05:49;;;;;;;5.70;2.80;;;;;;;;;;4969225;28;20909;-50
2021/11/24 09:08:16;;;;;;;5.80;2.45;;;;;;;;;;4986469;28;20117;-51
2021/11/24 09:10:42;;;;;;;5.32;2.80;;;;;;;;;;4984870;28;20034;-50
2021/11/24 09:13:08;;;;;;;6.20;2.83;;;;;;;;;;4984175;28;20060;-50
2021/11/24 09:15:34;;;;;;;7.05;3.28;;;;;;;;;;4984728;28;20044;-52
2021/11/24 09:18:01;;;;;;;7.97;2.92;;;;;;;;;;4986858;28;20126;-51
2021/11/24 09:20:27;;;;;;;4.78;2.22;;;;;;;;;;4984950;28;20038;-54
2021/11/24 09:22:53;;;;;;;7.35;3.08;;;;;;;;;;4984367;28;20137;-51
2021/11/24 09:25:21;;;;;;;9.45;3.63;;;;;;;;;;4985646;28;20042;-51
2021/11/24 09:28:06;;;;;;;10.30;2.97;;;;;;;;;;4984752;28;20069;-51
2021/11/24 09:30:32;;;;;;;4.65;2.45;;;;;;;;;;4984659;28;20607;-54
2021/11/24 09:32:58;;;;;;;6.78;3.00;;;;;;;;;;4986804;28;20073;-53
2021/11/24 09:35:24;;;;;;;7.85;3.15;;;;;;;;;;4981886;28;20042;-53
2021/11/24 09:37:50;;;;;;;8.10;2.72;;;;;;;;;;4966863;28;20044;-53
2021/11/24 09:40:16;;;;;;;7.88;3.28;;;;;;;;;;4983492;28;20117;-50
2021/11/24 09:42:43;;;;;;;5.68;2.80;;;;;;;;;;4982063;28;20080;-50
2021/11/24 09:45:10;;;;;;;6.90;2.75;;;;;;;;;;4985276;28;20069;-53
2021/11/24 09:47:37;;;;;;;5.63;2.90;;;;;;;;;;4985756;28;20362;-54
2021/11/24 09:50:04;;;;;;;6.45;2.78;;;;;;;;;;4984645;28;20033;-51
2021/11/24 09:52:30;;;;;;;6.65;3.08;;;;;;;;;;4983182;28;20049;-50
2021/11/24 09:54:56;;;;;;;13.40;3.67;;;;;;;;;;4990638;28;20081;-50
2021/11/24 09:57:26;;;;;;;15.68;3.03;;;;;;;;;;4984129;28;20034;-51
2021/11/24 09:59:52;;;;;;;8.48;3.38;;;;;;;;;;4982875;28;20043;-52
2021/11/24 10:02:19;;;;;;;5.80;2.80;;;;;;;;;;4984985;28;20049;-51
2021/11/24 10:04:46;;;;;;;7.70;2.90;;;;;;;;;;4989609;28;20042;-53
2021/11/24 10:07:15;;;;;;;6.50;2.80;;;;;;;;;;4971482;28;20042;-49
2021/11/24 10:09:41;;;;;;;9.18;3.15;;;;;;;;;;4957779;28;20078;-51
2021/11/24 10:12:08;;;;;;;4.13;1.90;;;;;;;;;;4956924;28;20051;-50
2021/11/24 10:14:35;;;;;;;7.32;2.63;;;;;;;;;;4955065;28;20130;-54
2021/11/24 10:17:05;;;;;;;7.32;3.05;;;;;;;;;;4953911;28;20034;-54
2021/11/24 10:19:32;;;;;;;6.32;2.88;;;;;;;;;;4954338;28;20047;-50
2021/11/24 10:21:58;;;;;;;5.90;2.95;;;;;;;;;;4954722;28;20046;-54
2021/11/24 10:24:31;;;;;;;6.72;3.35;;;;;;;;;;4956826;28;20035;-53
2021/11/24 10:26:57;;;;;;;7.75;3.42;;;;;;;;;;4958733;28;20511;-52
2021/11/24 10:29:23;;;;;;;7.40;3.65;;;;;;;;;;4956519;28;20038;-52
2021/11/24 10:31:52;;;;;;;7.00;3.28;;;;;;;;;;4956847;28;20416;-54
2021/11/24 10:34:29;;;;;;;5.43;2.88;;;;;;;;;;4957832;28;20516;-52
2021/11/24 10:37:01;;;;;;;13.73;3.38;;;;;;;;;;4957142;28;20043;-55
2021/11/24 10:39:28;;;;;;;13.07;4.03;;;;;;;;;;4958199;28;20540;-54
2021/11/24 10:42:01;;;;;;;7.60;3.42;;;;;;;;;;4958603;28;20039;-53
2021/11/24 10:44:28;;;;;;;11.77;4.13;;;;;;;;;;4956096;28;20042;-54
2021/11/24 10:46:55;;;;;;;10.40;3.70;;;;;;;;;;4958177;28;20485;-55
2021/11/24 10:49:29;;;;;;;10.07;4.38;;;;;;;;;;4955516;28;20495;-55
2021/11/24 10:51:55;;;;;;;10.90;4.00;;;;;;;;;;4954214;28;20038;-51
2021/11/24 10:54:21;;;;;;;8.75;4.22;;;;;;;;;;4955254;28;20469;-51
2021/11/24 10:57:10;;;;;;;10.00;4.97;;;;;;;;;;4956774;28;20170;-52
2021/11/24 10:59:38;;;;;;;10.95;4.00;;;;;;;;;;4947695;28;20046;-53
2021/11/24 11:02:19;;;;;;;10.85;4.53;;;;;;;;;;4937240;28;20509;-51
2021/11/24 11:04:54;;;;;;;12.63;4.63;;;;;;;;;;4954416;28;20077;-54
2021/11/24 11:07:20;;;;;;;9.35;5.25;;;;;;;;;;4959401;28;20051;-53
2021/11/24 11:09:46;;;;;;;11.38;6.00;;;;;;;;;;4984609;28;20049;-50
2021/11/24 11:12:12;;;;;;;10.93;5.35;;;;;;;;;;4984849;28;20062;-53
2021/11/24 11:14:38;;;;;;;11.98;5.60;;;;;;;;;;4983399;28;20049;-53
2021/11/24 11:17:04;;;;;;;17.63;6.18;;;;;;;;;;4985374;28;20065;-50
2021/11/24 11:19:37;;;;;;;20.23;5.90;;;;;;;;;;4985540;28;20484;-52
2021/11/24 11:22:03;;;;;;;16.20;6.47;;;;;;;;;;4981029;28;20115;-50
2021/11/24 11:24:29;;;;;;;15.07;5.28;;;;;;;;;;4983942;28;20081;-54
2021/11/24 11:26:55;;;;;;;9.57;5.07;;;;;;;;;;4967620;28;20453;-53
2021/11/24 11:29:21;;;;;;;12.57;5.80;;;;;;;;;;4983831;28;20695;-52
2021/11/24 11:31:48;;;;;;;15.93;5.15;;;;;;;;;;4982300;28;20038;-54
2021/11/24 11:34:14;;;;;;;13.93;5.35;;;;;;;;;;4985039;28;20050;-51
2021/11/24 11:36:43;;;;;;;9.18;5.13;;;;;;;;;;4983565;28;20928;-54
2021/11/24 11:39:09;;;;;;;11.15;4.80;;;;;;;;;;4984234;28;20046;-55
2021/11/24 11:41:37;;;;;;;13.55;5.88;;;;;;;;;;4985250;28;20901;-54
2021/11/24 11:44:04;;;;;;;8.50;5.10;;;;;;;;;;4984828;28;20111;-54
2021/11/24 11:46:33;;;;;;;10.77;5.07;;;;;;;;;;4983356;28;20042;-51
2021/11/24 11:49:07;;;;;;;11.40;4.93;;;;;;;;;;4985581;28;22434;-54
2021/11/24 11:51:35;;;;;;;17.33;5.88;;;;;;;;;;4982973;28;20121;-51
2021/11/24 11:54:01;;;;;;;8.25;4.95;;;;;;;;;;4985205;28;20615;-53
2021/11/24 11:56:31;;;;;;;6.65;4.45;;;;;;;;;;4984081;28;20426;-51
2021/11/24 11:59:03;;;;;;;13.20;5.30;;;;;;;;;;4982377;28;20066;-50
2021/11/24 12:01:33;;;;;;;12.05;5.38;;;;;;;;;;4983559;28;20046;-49
2021/11/24 12:04:01;;;;;;;10.43;4.90;;;;;;;;;;4982771;28;20846;-50
2021/11/24 12:06:28;;;;;;;11.30;5.60;;;;;;;;;;4981833;28;20132;-50
2021/11/24 12:09:06;;;;;;;14.30;7.28;;;;;;;;;;4983352;28;20054;-52
2021/11/24 12:11:51;;;;;;;10.02;5.47;;;;;;;;;;4984500;28;20510;-51
2021/11/24 12:14:35;;;;;;;8.40;5.05;;;;;;;;;;4974753;28;20133;-52
2021/11/24 12:17:01;;;;;;;16.23;6.72;;;;;;;;;;4983404;28;20045;-54
2021/11/24 12:19:35;;;;;;;14.73;7.28;;;;;;;;;;4982856;28;20586;-55
2021/11/24 12:22:01;;;;;;;13.43;6.95;;;;;;;;;;4983725;28;20049;-53
2021/11/24 12:24:39;;;;;;;15.73;8.20;;;;;;;;;;4982859;28;20058;-50
2021/11/24 12:27:05;;;;;;;17.08;8.02;;;;;;;;;;4982917;28;20030;-50
2021/11/24 12:29:48;;;;;;;15.82;8.00;;;;;;;;;;4982141;28;20108;-54
2021/11/24 12:32:17;;;;;;;8.38;5.32;;;;;;;;;;4983944;28;20580;-53
2021/11/24 12:34:51;;;;;;;10.82;5.97;;;;;;;;;;4982487;28;20196;-51
2021/11/24 12:37:23;;;;;;;16.83;6.05;;;;;;;;;;4983895;28;20495;-54
2021/11/24 12:39:49;;;;;;;13.45;5.47;;;;;;;;;;4984124;28;20097;-52
2021/11/24 12:42:24;;;;;;;12.40;5.25;;;;;;;;;;4965307;28;20108;-54
2021/11/24 12:44:51;;;;;;;10.07;5.25;;;;;;;;;;4979873;28;20145;-52
2021/11/24 12:47:19;;;;;;;11.68;4.30;;;;;;;;;;4981956;28;20030;-53
2021/11/24 12:49:45;;;;;;;10.80;5.10;;;;;;;;;;4980885;28;20038;-54
2021/11/24 12:52:11;;;;;;;11.52;4.43;;;;;;;;;;4980153;28;20104;-53
2021/11/24 12:54:39;;;;;;;11.93;5.13;;;;;;;;;;4979020;28;20077;-52
2021/11/24 12:57:06;;;;;;;8.65;4.82;;;;;;;;;;4982915;28;20034;-50
2021/11/24 12:59:37;;;;;;;8.20;4.72;;;;;;;;;;4982182;28;20333;-51
2021/11/24 13:02:06;;;;;;;14.10;3.65;;;;;;;;;;4982714;28;20135;-52
2021/11/24 13:04:46;;;;;;;8.80;5.00;;;;;;;;;;4983454;28;20481;-51
2021/11/24 13:07:17;;;;;;;9.88;4.80;;;;;;;;;;4982188;28;20058;-54
2021/11/24 13:09:43;;;;;;;10.35;4.20;;;;;;;;;;4982105;28;20046;-52
2021/11/24 13:12:34;;;;;;;9.63;5.10;;;;;;;;;;4982751;28;20054;-52
2021/11/24 13:15:00;;;;;;;8.18;4.45;;;;;;;;;;4981637;28;20570;-55
2021/11/24 13:17:30;;;;;;;7.15;4.57;;;;;;;;;;4982239;28;20037;-50
2021/11/24 13:19:58;;;;;;;11.00;4.85;;;;;;;;;;4980692;28;20042;-50
2021/11/24 13:22:30;;;;;;;9.07;4.57;;;;;;;;;;4983732;28;20050;-51
2021/11/24 13:25:07;;;;;;;11.30;4.22;;;;;;;;;;4982185;28;20069;-51
2021/11/24 13:27:59;;;;;;;10.88;5.20;;;;;;;;;;4981942;28;20034;-52
2021/11/24 13:30:29;;;;;;;8.07;5.05;;;;;;;;;;4954613;28;20061;-54
2021/11/24 13:32:55;;;;;;;8.73;4.68;;;;;;;;;;4982917;28;20772;-54
2021/11/24 13:35:21;;;;;;;9.52;5.05;;;;;;;;;;4982084;28;20092;-52
2021/11/24 13:37:50;;;;;;;10.98;6.05;;;;;;;;;;4982949;28;20034;-51
2021/11/24 13:40:30;;;;;;;12.63;5.75;;;;;;;;;;4958830;28;20045;-51
2021/11/24 13:42:56;;;;;;;12.30;5.88;;;;;;;;;;4981220;28;20038;-52
2021/11/24 13:45:36;;;;;;;6.88;4.20;;;;;;;;;;4980142;28;20034;-50
2021/11/24 13:48:13;;;;;;;10.13;4.95;;;;;;;;;;4982390;28;20137;-50
2021/11/24 13:50:39;;;;;;;10.45;5.63;;;;;;;;;;4979956;28;20129;-52
2021/11/24 13:53:24;;;;;;;10.65;4.60;;;;;;;;;;4980952;28;20116;-50
2021/11/24 13:56:05;;;;;;;10.50;5.18;;;;;;;;;;4978440;28;20052;-54
2021/11/24 13:58:31;;;;;;;10.40;5.20;;;;;;;;;;4984157;28;20054;-51
2021/11/24 14:01:29;;;;;;;9.27;5.18;;;;;;;;;;4970455;28;20043;-49
2021/11/24 14:03:57;;;;;;;9.50;5.10;;;;;;;;;;4939804;28;20048;-52
2021/11/24 14:06:35;;;;;;;10.02;5.90;;;;;;;;;;4985386;28;20144;-54
2021/11/24 14:09:22;;;;;;;10.25;5.82;;;;;;;;;;4986646;28;20050;-50
2021/11/24 14:11:56;;;;;;;8.02;5.22;;;;;;;;;;4987487;28;20041;-50
2021/11/24 14:14:23;;;;;;;10.27;5.65;;;;;;;;;;4988949;28;20043;-51
2021/11/24 14:16:53;;;;;;;11.18;6.32;;;;;;;;;;4988095;28;20049;-50
2021/11/24 14:19:19;;;;;;;11.57;5.80;;;;;;;;;;4989632;28;20053;-51
2021/11/24 14:21:48;;;;;;;9.00;5.32;;;;;;;;;;4987606;28;20038;-50
2021/11/24 14:24:14;;;;;;;8.90;5.82;;;;;;;;;;4989545;28;20038;-51
2021/11/24 14:26:40;;;;;;;9.23;5.75;;;;;;;;;;4985708;28;20042;-51
2021/11/24 14:29:06;;;;;;;9.50;4.93;;;;;;;;;;4989210;28;20038;-50
2021/11/24 14:31:32;;;;;;;11.02;5.88;;;;;;;;;;4988370;28;20053;-51
2021/11/24 14:33:57;;;;;;;10.40;5.70;;;;;;;;;;4986076;28;20050;-50
2021/11/24 14:36:28;;;;;;;12.25;6.00;;;;;;;;;;4988728;28;20679;-50
2021/11/24 14:38:54;;;;;;;10.45;5.45;;;;;;;;;;4987993;28;20613;-51
2021/11/24 14:41:20;;;;;;;12.50;5.95;;;;;;;;;;4986504;28;20046;-54
2021/11/24 14:43:46;;;;;;;10.18;5.68;;;;;;;;;;4988147;28;20133;-55